Time;durP1;ratioP1;P1;durP2;ratioP2;P2;SDS_P1;SDS_P2;PMS_P1;PMS_P2;Temp;Humidity;BMP_temperature;BMP_pressure;BME280_temperature;BME280_humidity;BME280_pressure;Samples;Min_cycle;Max_cycle;Signal;HPM_P1;HPM_P2
2022/04/16 00:01:49;;;;;;;22.85;14.52;;;;;;;;;;5026701;28;20033;-57
2022/04/16 00:04:15;;;;;;;19.35;15.35;;;;;;;;;;5024998;28;20053;-59
2022/04/16 00:06:41;;;;;;;21.40;15.38;;;;;;;;;;5022744;28;20445;-57
2022/04/16 00:09:07;;;;;;;18.83;14.77;;;;;;;;;;5024310;28;20179;-60
2022/04/16 00:11:33;;;;;;;20.23;14.80;;;;;;;;;;5027795;28;20091;-55
2022/04/16 00:13:59;;;;;;;20.08;15.10;;;;;;;;;;5022392;28;20065;-62
2022/04/16 00:16:25;;;;;;;18.98;14.90;;;;;;;;;;5020144;28;20481;-61
2022/04/16 00:18:51;;;;;;;21.35;15.13;;;;;;;;;;5021162;28;20507;-60
2022/04/16 00:21:17;;;;;;;22.83;16.23;;;;;;;;;;5025591;28;20595;-62
2022/04/16 00:23:44;;;;;;;23.50;17.02;;;;;;;;;;5026227;28;20044;-59
2022/04/16 00:26:13;;;;;;;20.60;15.70;;;;;;;;;;5025289;28;20045;-60
2022/04/16 00:28:39;;;;;;;21.52;16.20;;;;;;;;;;5021183;28;20025;-62
2022/04/16 00:31:05;;;;;;;22.55;16.20;;;;;;;;;;5018976;28;20393;-59
2022/04/16 00:33:33;;;;;;;24.35;17.15;;;;;;;;;;5023566;28;20542;-60
2022/04/16 00:35:59;;;;;;;27.88;18.00;;;;;;;;;;5023981;28;20033;-58
2022/04/16 00:38:25;;;;;;;24.88;17.50;;;;;;;;;;5026064;28;20029;-57
2022/04/16 00:40:52;;;;;;;29.35;18.13;;;;;;;;;;5025512;28;20033;-62
2022/04/16 00:43:22;;;;;;;26.38;18.10;;;;;;;;;;5024818;28;20511;-59
2022/04/16 00:45:48;;;;;;;26.80;18.75;;;;;;;;;;5022690;28;20045;-59
2022/04/16 00:48:14;;;;;;;25.88;19.25;;;;;;;;;;5024095;28;20577;-57
2022/04/16 00:50:41;;;;;;;25.95;19.17;;;;;;;;;;5025372;28;20025;-62
2022/04/16 00:53:07;;;;;;;28.67;19.90;;;;;;;;;;5026905;28;20380;-62
2022/04/16 00:55:37;;;;;;;27.58;18.92;;;;;;;;;;5022777;28;20423;-62
2022/04/16 00:58:03;;;;;;;27.30;19.23;;;;;;;;;;5022174;28;20021;-62
2022/04/16 01:00:29;;;;;;;28.88;19.52;;;;;;;;;;5025009;28;20487;-61
2022/04/16 01:02:58;;;;;;;28.27;20.02;;;;;;;;;;5020585;28;20040;-62
2022/04/16 01:05:24;;;;;;;27.35;19.02;;;;;;;;;;5022280;28;20469;-59
2022/04/16 01:07:57;;;;;;;30.15;21.48;;;;;;;;;;5013528;28;20033;-56
2022/04/16 01:10:26;;;;;;;32.63;21.10;;;;;;;;;;5025504;28;20095;-60
2022/04/16 01:12:52;;;;;;;32.95;21.52;;;;;;;;;;5024350;28;20741;-59
2022/04/16 01:15:20;;;;;;;30.05;21.15;;;;;;;;;;5025328;28;20030;-56
2022/04/16 01:17:47;;;;;;;32.72;21.90;;;;;;;;;;5018882;28;20388;-63
2022/04/16 01:20:13;;;;;;;26.30;19.85;;;;;;;;;;5020606;28;20120;-61
2022/04/16 01:22:39;;;;;;;30.42;21.20;;;;;;;;;;5018160;28;20116;-60
2022/04/16 01:25:07;;;;;;;32.95;22.30;;;;;;;;;;5021739;28;20037;-59
2022/04/16 01:27:35;;;;;;;30.08;21.45;;;;;;;;;;5016738;28;20037;-60
2022/04/16 01:30:02;;;;;;;32.50;22.05;;;;;;;;;;5023881;28;20033;-59
2022/04/16 01:32:28;;;;;;;33.97;23.20;;;;;;;;;;5022807;28;20026;-62
2022/04/16 01:34:54;;;;;;;31.02;22.08;;;;;;;;;;5022692;28;20025;-61
2022/04/16 01:37:23;;;;;;;34.92;23.08;;;;;;;;;;5024753;28;20056;-61
2022/04/16 01:39:49;;;;;;;35.72;23.05;;;;;;;;;;5019949;28;20064;-59
2022/04/16 01:42:15;;;;;;;32.53;23.10;;;;;;;;;;5019158;28;20112;-59
2022/04/16 01:44:43;;;;;;;32.25;23.38;;;;;;;;;;5024855;28;20144;-55
2022/04/16 01:47:10;;;;;;;37.30;23.80;;;;;;;;;;5024807;28;20178;-62
2022/04/16 01:49:36;;;;;;;33.90;24.33;;;;;;;;;;5020835;28;20033;-58
2022/04/16 01:52:03;;;;;;;37.42;23.98;;;;;;;;;;5020216;28;20029;-61
2022/04/16 01:54:29;;;;;;;34.90;24.23;;;;;;;;;;5024432;28;20095;-61
2022/04/16 01:56:56;;;;;;;33.28;24.08;;;;;;;;;;5024048;28;20033;-60
2022/04/16 01:59:22;;;;;;;38.35;26.40;;;;;;;;;;5015624;28;20029;-62
2022/04/16 02:01:48;;;;;;;40.08;24.58;;;;;;;;;;5020056;28;20091;-61
2022/04/16 02:04:14;;;;;;;40.72;24.67;;;;;;;;;;5018525;28;20026;-63
2022/04/16 02:06:40;;;;;;;35.25;24.77;;;;;;;;;;5018566;28;20037;-62
2022/04/16 02:09:06;;;;;;;37.50;25.60;;;;;;;;;;5017378;28;20057;-60
2022/04/16 02:11:32;;;;;;;35.92;24.75;;;;;;;;;;5021133;28;20021;-61
2022/04/16 02:13:58;;;;;;;34.95;25.70;;;;;;;;;;5022755;28;20025;-61
2022/04/16 02:16:24;;;;;;;39.83;25.25;;;;;;;;;;5019444;28;20433;-61
2022/04/16 02:18:51;;;;;;;40.22;25.52;;;;;;;;;;5018528;28;20474;-62
2022/04/16 02:21:19;;;;;;;38.53;26.13;;;;;;;;;;5016560;28;20033;-62
2022/04/16 02:23:46;;;;;;;38.53;25.48;;;;;;;;;;5019300;28;20108;-62
2022/04/16 02:26:12;;;;;;;42.15;26.95;;;;;;;;;;5024606;28;20040;-58
2022/04/16 02:28:38;;;;;;;36.83;26.13;;;;;;;;;;5018567;28;20044;-62
2022/04/16 02:31:04;;;;;;;40.58;26.60;;;;;;;;;;5022911;28;20054;-59
2022/04/16 02:33:30;;;;;;;40.40;25.75;;;;;;;;;;5021682;28;20030;-60
2022/04/16 02:35:57;;;;;;;40.67;27.42;;;;;;;;;;5021181;28;20021;-62
2022/04/16 02:38:23;;;;;;;42.15;27.33;;;;;;;;;;5025536;28;20467;-61
2022/04/16 02:40:49;;;;;;;42.38;26.75;;;;;;;;;;5021611;28;20405;-58
2022/04/16 02:43:15;;;;;;;40.55;28.05;;;;;;;;;;5021951;28;20029;-59
2022/04/16 02:48:26;;;;;;;39.75;26.60;;;;;;;;;;5021605;28;20184;-61
2022/04/16 02:50:53;;;;;;;38.72;27.35;;;;;;;;;;5020651;28;20483;-60
2022/04/16 02:53:19;;;;;;;39.72;26.40;;;;;;;;;;5022774;28;20929;-60
2022/04/16 02:55:46;;;;;;;44.03;29.48;;;;;;;;;;5023967;28;20250;-63
2022/04/16 02:58:13;;;;;;;40.72;28.00;;;;;;;;;;5020884;28;20022;-62
2022/04/16 03:00:40;;;;;;;41.88;29.20;;;;;;;;;;5021559;28;20396;-62
2022/04/16 03:03:08;;;;;;;41.90;28.05;;;;;;;;;;5016176;28;20030;-60
2022/04/16 03:05:34;;;;;;;41.88;27.90;;;;;;;;;;5015356;28;20031;-61
2022/04/16 03:08:01;;;;;;;39.80;28.35;;;;;;;;;;5022568;28;20511;-62
2022/04/16 03:10:27;;;;;;;46.38;32.05;;;;;;;;;;5026852;28;20017;-58
2022/04/16 03:12:53;;;;;;;46.55;31.25;;;;;;;;;;5022162;28;20226;-62
2022/04/16 03:18:07;;;;;;;42.30;29.02;;;;;;;;;;5022379;28;20122;-61
2022/04/16 03:20:33;;;;;;;43.63;29.05;;;;;;;;;;5026830;28;20102;-58
2022/04/16 03:22:59;;;;;;;43.13;28.30;;;;;;;;;;5024962;28;20033;-58
2022/04/16 03:25:27;;;;;;;42.65;30.00;;;;;;;;;;5023952;28;20040;-60
2022/04/16 03:27:53;;;;;;;40.45;28.90;;;;;;;;;;5025002;28;20127;-63
2022/04/16 03:30:19;;;;;;;43.92;30.65;;;;;;;;;;5023262;28;20457;-62
2022/04/16 03:32:47;;;;;;;40.67;29.05;;;;;;;;;;5029149;28;20022;-62
2022/04/16 03:35:13;;;;;;;44.67;30.05;;;;;;;;;;5022635;28;20049;-62
2022/04/16 03:37:39;;;;;;;45.03;31.40;;;;;;;;;;5025119;28;20030;-60
2022/04/16 03:40:06;;;;;;;43.95;30.48;;;;;;;;;;5031457;28;20465;-61
2022/04/16 03:42:32;;;;;;;44.90;31.23;;;;;;;;;;5026365;28;20040;-61
2022/04/16 03:45:00;;;;;;;43.08;30.33;;;;;;;;;;5025376;28;20033;-60
2022/04/16 03:47:26;;;;;;;48.85;32.00;;;;;;;;;;5017714;28;20547;-62
2022/04/16 03:49:52;;;;;;;44.65;32.40;;;;;;;;;;5024721;28;20018;-62
2022/04/16 03:52:18;;;;;;;45.08;31.70;;;;;;;;;;5024249;28;20310;-60
2022/04/16 04:00:13;;;;;;;46.05;32.60;;;;;;;;;;5025241;28;20130;-62
2022/04/16 04:02:39;;;;;;;49.20;31.75;;;;;;;;;;5023306;28;20052;-61
2022/04/16 04:05:06;;;;;;;50.83;31.05;;;;;;;;;;5020140;28;20048;-60
2022/04/16 04:07:32;;;;;;;48.35;32.05;;;;;;;;;;5026225;28;20108;-62
2022/04/16 04:09:58;;;;;;;43.15;31.00;;;;;;;;;;5026226;28;20029;-62
2022/04/16 04:12:24;;;;;;;45.80;31.90;;;;;;;;;;5026388;28;20403;-59
2022/04/16 04:14:50;;;;;;;49.30;32.95;;;;;;;;;;5023589;28;20704;-58
2022/04/16 04:17:16;;;;;;;48.42;32.75;;;;;;;;;;5021318;28;20033;-58
2022/04/16 04:19:44;;;;;;;48.15;32.83;;;;;;;;;;5022205;28;20333;-62
2022/04/16 04:22:11;;;;;;;49.10;33.25;;;;;;;;;;5026421;28;20028;-58
2022/04/16 04:24:37;;;;;;;47.17;33.45;;;;;;;;;;5024434;28;20025;-59
2022/04/16 04:27:03;;;;;;;50.47;34.08;;;;;;;;;;5024415;28;20037;-61
2022/04/16 04:29:29;;;;;;;48.83;33.25;;;;;;;;;;5025622;28;20061;-61
2022/04/16 04:31:56;;;;;;;50.63;33.78;;;;;;;;;;5025201;28;20076;-59
2022/04/16 04:34:22;;;;;;;47.70;33.20;;;;;;;;;;5023101;28;20088;-62
2022/04/16 04:36:48;;;;;;;48.13;32.35;;;;;;;;;;5024444;28;20036;-61
2022/04/16 04:39:14;;;;;;;53.63;34.17;;;;;;;;;;5025718;28;20101;-62
2022/04/16 04:41:43;;;;;;;52.42;32.67;;;;;;;;;;5024862;28;20423;-60
2022/04/16 04:44:10;;;;;;;53.47;34.97;;;;;;;;;;5022094;28;20224;-62
2022/04/16 04:46:36;;;;;;;50.65;34.15;;;;;;;;;;5024204;28;20041;-62
2022/04/16 04:49:02;;;;;;;51.90;34.08;;;;;;;;;;5024640;28;20101;-58
2022/04/16 04:51:28;;;;;;;50.88;33.90;;;;;;;;;;5026026;28;20425;-60
2022/04/16 04:53:54;;;;;;;56.45;34.85;;;;;;;;;;5023872;28;20045;-61
2022/04/16 04:56:20;;;;;;;51.70;36.20;;;;;;;;;;5024504;28;20028;-58
2022/04/16 04:58:46;;;;;;;49.05;33.47;;;;;;;;;;5025661;28;20029;-61
2022/04/16 05:01:12;;;;;;;54.75;36.53;;;;;;;;;;5025327;28;20544;-59
2022/04/16 05:03:38;;;;;;;55.17;36.42;;;;;;;;;;5025804;28;20527;-61
2022/04/16 05:06:04;;;;;;;52.65;34.83;;;;;;;;;;5020794;28;20608;-62
2022/04/16 05:08:30;;;;;;;56.53;37.00;;;;;;;;;;5022905;28;20100;-60
2022/04/16 05:10:56;;;;;;;59.22;36.78;;;;;;;;;;5023789;28;20094;-61
2022/04/16 05:13:22;;;;;;;52.95;35.65;;;;;;;;;;5026654;28;20021;-62
2022/04/16 05:15:48;;;;;;;60.03;37.55;;;;;;;;;;5023180;28;20369;-60
2022/04/16 05:18:14;;;;;;;54.58;37.60;;;;;;;;;;5026562;28;20497;-63
2022/04/16 05:20:40;;;;;;;52.75;35.47;;;;;;;;;;5023859;28;20030;-62
2022/04/16 05:23:06;;;;;;;51.97;35.97;;;;;;;;;;5023229;28;20029;-58
2022/04/16 05:25:32;;;;;;;52.92;35.38;;;;;;;;;;5024993;28;20107;-59
2022/04/16 05:27:58;;;;;;;51.97;36.38;;;;;;;;;;5023241;28;20120;-61
2022/04/16 05:30:30;;;;;;;56.70;36.97;;;;;;;;;;5023816;28;20026;-57
2022/04/16 05:33:02;;;;;;;41.78;28.15;;;;;;;;;;5023711;28;20480;-61
2022/04/16 05:35:28;;;;;;;57.08;37.47;;;;;;;;;;5024121;28;20101;-59
2022/04/16 05:37:54;;;;;;;55.42;37.55;;;;;;;;;;5026872;28;20079;-60
2022/04/16 05:40:20;;;;;;;57.63;39.13;;;;;;;;;;5023952;28;20312;-59
2022/04/16 05:42:46;;;;;;;53.47;37.13;;;;;;;;;;5021752;28;20044;-58
2022/04/16 05:45:14;;;;;;;59.00;38.42;;;;;;;;;;5022115;28;20036;-62
2022/04/16 05:47:41;;;;;;;60.00;39.25;;;;;;;;;;5019081;28;20120;-59
2022/04/16 05:50:07;;;;;;;60.33;37.92;;;;;;;;;;5023381;28;20186;-61
2022/04/16 05:52:34;;;;;;;54.67;38.13;;;;;;;;;;5025871;28;20025;-59
2022/04/16 05:55:00;;;;;;;52.70;35.47;;;;;;;;;;5023910;28;20022;-59
2022/04/16 05:57:26;;;;;;;53.53;36.15;;;;;;;;;;5022156;28;20199;-59
2022/04/16 05:59:52;;;;;;;53.83;36.67;;;;;;;;;;5021655;28;20041;-59
2022/04/16 06:02:18;;;;;;;51.90;36.80;;;;;;;;;;5022705;28;20029;-59
2022/04/16 06:04:44;;;;;;;53.80;36.03;;;;;;;;;;5020882;28;20847;-59
2022/04/16 06:07:10;;;;;;;51.78;34.38;;;;;;;;;;5022279;28;20026;-59
2022/04/16 06:09:37;;;;;;;51.70;35.42;;;;;;;;;;5022993;28;20048;-59
2022/04/16 06:12:03;;;;;;;52.03;34.80;;;;;;;;;;5018982;28;20075;-56
2022/04/16 06:14:29;;;;;;;50.03;35.08;;;;;;;;;;5019990;28;20036;-54
2022/04/16 06:16:55;;;;;;;49.45;34.60;;;;;;;;;;5023232;28;20026;-56
2022/04/16 06:19:21;;;;;;;48.10;34.00;;;;;;;;;;5022095;28;20412;-56
2022/04/16 06:21:47;;;;;;;48.70;34.83;;;;;;;;;;5017360;28;20037;-56
2022/04/16 06:24:13;;;;;;;47.67;33.28;;;;;;;;;;5020466;28;20025;-57
2022/04/16 06:26:42;;;;;;;48.72;33.80;;;;;;;;;;5024536;28;20033;-58
2022/04/16 06:29:07;;;;;;;42.88;31.13;;;;;;;;;;5016170;28;20029;-59
2022/04/16 06:31:33;;;;;;;44.50;31.42;;;;;;;;;;5020280;28;20021;-56
2022/04/16 06:33:59;;;;;;;42.75;30.30;;;;;;;;;;5018518;28;20025;-56
2022/04/16 06:36:25;;;;;;;42.58;29.63;;;;;;;;;;5022859;28;20099;-59
2022/04/16 06:38:51;;;;;;;41.50;29.38;;;;;;;;;;5019761;28;20017;-57
2022/04/16 06:41:17;;;;;;;38.60;26.70;;;;;;;;;;5015773;28;20053;-55
2022/04/16 06:43:43;;;;;;;36.00;26.10;;;;;;;;;;5018815;28;20472;-55
2022/04/16 06:46:09;;;;;;;37.15;27.58;;;;;;;;;;5020457;28;20412;-53
2022/04/16 06:48:35;;;;;;;40.65;28.40;;;;;;;;;;5020225;28;20026;-58
2022/04/16 06:51:01;;;;;;;39.55;27.70;;;;;;;;;;5018601;28;20029;-55
2022/04/16 06:53:27;;;;;;;33.45;25.00;;;;;;;;;;5020395;28;20472;-60
2022/04/16 06:55:53;;;;;;;38.22;25.67;;;;;;;;;;5024793;28;20034;-55
2022/04/16 06:58:19;;;;;;;35.92;23.85;;;;;;;;;;5020477;28;20596;-57
2022/04/16 07:00:45;;;;;;;34.55;25.48;;;;;;;;;;5018370;28;20032;-57
2022/04/16 07:03:13;;;;;;;34.20;22.42;;;;;;;;;;5019267;28;20033;-57
2022/04/16 07:05:39;;;;;;;27.27;21.48;;;;;;;;;;5020636;28;20028;-59
2022/04/16 07:08:05;;;;;;;32.25;21.42;;;;;;;;;;5016478;28;20026;-57
2022/04/16 07:10:31;;;;;;;29.90;21.38;;;;;;;;;;5022057;28;20433;-59
2022/04/16 07:12:57;;;;;;;31.58;22.08;;;;;;;;;;5021223;28;20021;-59
2022/04/16 07:15:23;;;;;;;31.63;21.40;;;;;;;;;;5018895;28;20029;-58
2022/04/16 07:17:49;;;;;;;30.27;20.88;;;;;;;;;;5018355;28;20037;-58
2022/04/16 07:20:15;;;;;;;30.42;21.38;;;;;;;;;;5020333;28;20029;-60
2022/04/16 07:22:41;;;;;;;27.85;21.08;;;;;;;;;;5022089;28;20132;-59
2022/04/16 07:25:07;;;;;;;32.50;20.98;;;;;;;;;;5020834;28;20631;-59
2022/04/16 07:27:33;;;;;;;30.17;20.17;;;;;;;;;;5020062;28;20026;-60
2022/04/16 07:30:00;;;;;;;31.52;21.45;;;;;;;;;;5018646;28;20037;-60
2022/04/16 07:32:27;;;;;;;28.83;22.30;;;;;;;;;;5020697;28;20222;-59
2022/04/16 07:34:53;;;;;;;32.63;23.65;;;;;;;;;;5020111;28;20021;-59
2022/04/16 07:37:19;;;;;;;31.23;22.60;;;;;;;;;;5021861;28;20153;-57
2022/04/16 07:39:45;;;;;;;28.27;20.88;;;;;;;;;;5020779;28;20065;-58
2022/04/16 07:42:11;;;;;;;27.83;20.05;;;;;;;;;;5019234;28;20025;-60
2022/04/16 07:44:37;;;;;;;26.08;19.80;;;;;;;;;;5018429;28;20064;-60
2022/04/16 07:47:03;;;;;;;25.92;19.48;;;;;;;;;;5020173;28;20029;-60
2022/04/16 07:49:29;;;;;;;23.10;18.30;;;;;;;;;;5019011;28;20144;-59
2022/04/16 07:51:55;;;;;;;26.15;18.70;;;;;;;;;;5019701;28;20061;-60
2022/04/16 07:54:21;;;;;;;24.58;19.55;;;;;;;;;;5020398;28;20030;-58
2022/04/16 07:56:47;;;;;;;25.10;19.17;;;;;;;;;;5025095;28;20025;-60
2022/04/16 07:59:13;;;;;;;23.02;18.08;;;;;;;;;;5021209;28;20492;-58
2022/04/16 08:01:39;;;;;;;22.27;17.38;;;;;;;;;;5024271;28;20692;-58
2022/04/16 08:04:05;;;;;;;22.35;17.60;;;;;;;;;;5024054;28;20040;-59
2022/04/16 08:06:31;;;;;;;22.65;17.05;;;;;;;;;;5026361;28;20021;-59
2022/04/16 08:09:01;;;;;;;21.10;16.40;;;;;;;;;;5022940;28;20064;-59
2022/04/16 08:11:30;;;;;;;26.63;17.25;;;;;;;;;;5024996;28;20026;-57
2022/04/16 08:13:57;;;;;;;24.35;17.83;;;;;;;;;;5023445;28;20385;-60
2022/04/16 08:16:23;;;;;;;20.00;16.27;;;;;;;;;;5023422;28;20440;-59
2022/04/16 08:18:48;;;;;;;19.58;15.07;;;;;;;;;;5024913;28;21030;-58
2022/04/16 08:21:14;;;;;;;20.83;15.95;;;;;;;;;;5022322;28;20099;-60
2022/04/16 08:23:54;;;;;;;17.48;14.10;;;;;;;;;;5024526;28;20503;-59
2022/04/16 08:26:20;;;;;;;18.70;14.70;;;;;;;;;;5022120;28;20034;-59
2022/04/16 08:28:46;;;;;;;19.05;14.60;;;;;;;;;;5024469;28;20112;-58
2022/04/16 08:31:12;;;;;;;18.42;14.45;;;;;;;;;;5023912;28;20332;-59
2022/04/16 08:33:38;;;;;;;17.77;14.43;;;;;;;;;;5025990;28;20038;-59
2022/04/16 08:36:04;;;;;;;18.02;14.20;;;;;;;;;;5025429;28;20025;-59
2022/04/16 08:38:30;;;;;;;15.20;11.10;;;;;;;;;;5024274;28;21157;-59
2022/04/16 08:40:56;;;;;;;15.40;10.93;;;;;;;;;;5021714;28;20025;-61
2022/04/16 08:43:23;;;;;;;13.38;10.55;;;;;;;;;;5025399;28;20088;-60
2022/04/16 08:45:50;;;;;;;15.65;10.68;;;;;;;;;;5026560;28;20021;-59
2022/04/16 08:48:16;;;;;;;13.43;10.18;;;;;;;;;;5022594;28;20085;-58
2022/04/16 08:50:44;;;;;;;13.10;10.88;;;;;;;;;;5021272;28;20021;-58
2022/04/16 08:53:10;;;;;;;14.90;11.73;;;;;;;;;;5021946;28;20083;-60
2022/04/16 08:55:37;;;;;;;15.23;11.15;;;;;;;;;;5026037;28;20033;-60
2022/04/16 08:58:03;;;;;;;12.20;9.75;;;;;;;;;;5022709;28;20111;-61
2022/04/16 09:00:29;;;;;;;12.10;9.73;;;;;;;;;;5019272;28;20609;-60
2022/04/16 09:02:56;;;;;;;12.55;10.05;;;;;;;;;;5019858;28;21116;-58
2022/04/16 09:05:23;;;;;;;11.45;9.57;;;;;;;;;;5020110;28;20757;-57
2022/04/16 09:07:50;;;;;;;12.18;8.93;;;;;;;;;;5021936;28;20037;-55
2022/04/16 09:10:16;;;;;;;10.45;8.38;;;;;;;;;;5018728;28;20510;-59
2022/04/16 09:12:44;;;;;;;12.82;9.20;;;;;;;;;;5016883;28;20083;-60
2022/04/16 09:15:11;;;;;;;10.40;8.43;;;;;;;;;;5015761;28;20083;-58
2022/04/16 09:17:38;;;;;;;10.85;8.23;;;;;;;;;;5025558;28;20033;-59
2022/04/16 09:20:04;;;;;;;12.07;9.07;;;;;;;;;;5015505;28;20065;-60
2022/04/16 09:22:35;;;;;;;12.85;10.50;;;;;;;;;;5015763;28;20030;-59
2022/04/16 09:25:02;;;;;;;14.88;11.13;;;;;;;;;;5017158;28;20508;-59
2022/04/16 09:27:28;;;;;;;12.95;10.10;;;;;;;;;;5018330;28;20032;-59
2022/04/16 09:29:54;;;;;;;11.80;10.07;;;;;;;;;;5022187;28;20052;-60
2022/04/16 09:32:22;;;;;;;14.55;10.20;;;;;;;;;;5017561;28;20038;-58
2022/04/16 09:34:48;;;;;;;12.27;8.38;;;;;;;;;;5020224;28;20039;-59
2022/04/16 09:37:14;;;;;;;10.43;8.10;;;;;;;;;;5011153;28;20068;-58
2022/04/16 09:39:40;;;;;;;8.85;5.40;;;;;;;;;;5018010;28;20057;-60
2022/04/16 09:42:06;;;;;;;8.35;6.00;;;;;;;;;;5018988;28;20084;-58
2022/04/16 09:44:32;;;;;;;12.15;7.90;;;;;;;;;;5017867;28;20029;-60
2022/04/16 09:46:59;;;;;;;9.30;8.20;;;;;;;;;;5025355;28;20476;-60
2022/04/16 09:49:25;;;;;;;10.57;7.72;;;;;;;;;;5022154;28;20109;-60
2022/04/16 09:51:51;;;;;;;10.90;8.32;;;;;;;;;;5021584;28;20080;-60
2022/04/16 09:54:18;;;;;;;9.57;7.30;;;;;;;;;;5021828;28;20104;-58
2022/04/16 09:56:46;;;;;;;9.27;7.60;;;;;;;;;;5026481;28;20079;-59
2022/04/16 09:59:13;;;;;;;10.93;6.30;;;;;;;;;;5021912;28;20526;-59
2022/04/16 10:01:46;;;;;;;8.18;6.25;;;;;;;;;;5016019;28;20185;-61
2022/04/16 10:04:12;;;;;;;9.23;6.90;;;;;;;;;;5020081;28;20026;-59
2022/04/16 10:06:38;;;;;;;8.73;6.70;;;;;;;;;;5021936;28;20021;-61
2022/04/16 10:09:13;;;;;;;8.63;6.18;;;;;;;;;;5019040;28;20198;-59
2022/04/16 10:14:34;;;;;;;8.45;6.70;;;;;;;;;;5022339;28;20044;-59
2022/04/16 10:17:08;;;;;;;8.18;6.85;;;;;;;;;;5019737;28;20057;-59
2022/04/16 10:19:37;;;;;;;7.95;7.00;;;;;;;;;;5023742;28;20508;-60
2022/04/16 10:22:03;;;;;;;10.20;6.90;;;;;;;;;;5013089;28;20164;-59
2022/04/16 10:24:29;;;;;;;10.23;6.60;;;;;;;;;;5017247;28;20045;-60
2022/04/16 10:27:04;;;;;;;9.35;6.85;;;;;;;;;;5023564;28;20471;-61
2022/04/16 10:29:34;;;;;;;9.85;6.75;;;;;;;;;;5021611;28;20428;-60
2022/04/16 10:32:00;;;;;;;8.00;6.32;;;;;;;;;;5018228;28;20026;-61
2022/04/16 10:34:30;;;;;;;10.93;6.55;;;;;;;;;;5020479;28;20076;-59
2022/04/16 10:36:56;;;;;;;8.75;6.32;;;;;;;;;;5017423;28;20532;-60
2022/04/16 10:39:27;;;;;;;8.20;6.65;;;;;;;;;;5019082;28;20071;-61
2022/04/16 10:42:01;;;;;;;7.57;5.50;;;;;;;;;;5021036;28;20034;-60
2022/04/16 10:44:27;;;;;;;;;;;;;;;;;;5018982;28;20049;-60
2022/04/16 10:46:54;;;;;;;7.07;5.88;;;;;;;;;;5022053;28;19916;-61
2022/04/16 10:49:21;;;;;;;8.90;6.82;;;;;;;;;;5018506;28;20481;-60
2022/04/16 10:51:50;;;;;;;8.30;6.45;;;;;;;;;;5018907;28;20022;-57
2022/04/16 10:54:27;;;;;;;8.05;6.35;;;;;;;;;;5018590;28;20029;-60
2022/04/16 10:56:54;;;;;;;11.75;9.10;;;;;;;;;;5016878;28;20088;-60
2022/04/16 10:59:34;;;;;;;9.35;6.72;;;;;;;;;;5020376;28;20037;-59
2022/04/16 11:02:01;;;;;;;8.75;6.90;;;;;;;;;;5016555;28;21165;-62
2022/04/16 11:04:27;;;;;;;9.13;5.90;;;;;;;;;;5020585;28;20107;-62
2022/04/16 11:06:57;;;;;;;7.75;5.95;;;;;;;;;;5019706;28;20497;-63
2022/04/16 11:09:23;;;;;;;8.57;6.13;;;;;;;;;;5016876;28;20739;-62
2022/04/16 11:11:50;;;;;;;8.65;6.63;;;;;;;;;;5022319;28;20033;-60
2022/04/16 11:14:16;;;;;;;8.93;6.82;;;;;;;;;;5019536;28;20095;-63
2022/04/16 11:16:46;;;;;;;7.40;5.85;;;;;;;;;;5018801;28;20109;-59
2022/04/16 11:19:13;;;;;;;7.95;5.70;;;;;;;;;;5020353;28;20033;-63
2022/04/16 11:21:39;;;;;;;8.93;6.15;;;;;;;;;;5019854;28;20154;-62
2022/04/16 11:24:06;;;;;;;9.82;6.00;;;;;;;;;;5019565;28;20393;-62
2022/04/16 11:34:51;;;;;;;7.63;6.32;;;;;;;;;;5026258;28;20071;-61
2022/04/16 11:37:17;;;;;;;9.13;6.88;;;;;;;;;;5020416;28;20108;-61
2022/04/16 11:39:46;;;;;;;8.20;6.20;;;;;;;;;;5024956;28;20022;-58
2022/04/16 11:42:12;;;;;;;8.23;6.40;;;;;;;;;;5021645;28;20029;-61
2022/04/16 11:44:42;;;;;;;7.30;5.78;;;;;;;;;;5021504;28;20065;-59
2022/04/16 11:47:12;;;;;;;8.13;6.75;;;;;;;;;;5019616;28;20029;-59
2022/04/16 11:49:43;;;;;;;10.45;7.35;;;;;;;;;;5024691;28;20037;-59
2022/04/16 11:52:10;;;;;;;10.55;6.93;;;;;;;;;;5024728;28;20177;-61
2022/04/16 11:54:36;;;;;;;8.93;7.10;;;;;;;;;;5023056;28;20258;-60
2022/04/16 11:57:02;;;;;;;8.82;7.40;;;;;;;;;;5024297;28;20010;-60
2022/04/16 11:59:29;;;;;;;10.18;7.40;;;;;;;;;;5024037;28;20053;-61
2022/04/16 12:02:08;;;;;;;9.88;7.07;;;;;;;;;;5025054;28;20040;-60
2022/04/16 12:04:41;;;;;;;12.40;7.65;;;;;;;;;;5022597;28;20416;-59
2022/04/16 12:07:14;;;;;;;8.02;6.13;;;;;;;;;;5024326;28;20029;-59
2022/04/16 12:09:47;;;;;;;10.77;7.22;;;;;;;;;;5024230;28;20033;-58
2022/04/16 12:12:14;;;;;;;8.70;6.65;;;;;;;;;;5017456;28;20432;-61
2022/04/16 12:14:47;;;;;;;8.40;6.57;;;;;;;;;;5029008;28;20021;-61
2022/04/16 12:17:21;;;;;;;9.40;7.00;;;;;;;;;;5018818;28;20104;-60
2022/04/16 12:19:46;;;;;;;8.43;6.90;;;;;;;;;;5023745;28;20063;-60
2022/04/16 12:22:16;;;;;;;8.52;6.85;;;;;;;;;;5019730;28;20030;-60
2022/04/16 12:24:42;;;;;;;8.38;6.07;;;;;;;;;;5023173;28;20087;-61
2022/04/16 12:27:08;;;;;;;8.23;6.40;;;;;;;;;;5026935;28;20041;-58
2022/04/16 12:29:34;;;;;;;8.95;6.45;;;;;;;;;;5023372;28;20021;-59
2022/04/16 12:32:00;;;;;;;7.88;6.47;;;;;;;;;;5024907;28;20029;-60
2022/04/16 12:34:26;;;;;;;25.80;19.75;;;;;;;;;;5026219;28;20017;-62
2022/04/16 12:36:53;;;;;;;8.40;6.60;;;;;;;;;;5022834;28;20109;-62
2022/04/16 12:39:19;;;;;;;6.90;5.90;;;;;;;;;;5026097;28;20362;-59
2022/04/16 12:41:45;;;;;;;7.57;5.97;;;;;;;;;;5018215;28;20619;-60
2022/04/16 12:44:11;;;;;;;7.65;5.75;;;;;;;;;;5022748;28;20097;-59
2022/04/16 12:46:37;;;;;;;8.68;6.00;;;;;;;;;;5017462;28;20048;-60
2022/04/16 12:49:04;;;;;;;8.02;5.88;;;;;;;;;;5024542;28;20875;-58
2022/04/16 12:51:30;;;;;;;8.95;5.70;;;;;;;;;;5026696;28;20087;-59
2022/04/16 12:53:56;;;;;;;8.38;5.80;;;;;;;;;;5022081;28;20049;-60
2022/04/16 12:56:22;;;;;;;6.85;5.47;;;;;;;;;;5027091;28;20113;-60
2022/04/16 12:58:48;;;;;;;7.15;5.43;;;;;;;;;;5025598;28;20021;-60
2022/04/16 13:01:13;;;;;;;7.00;4.60;;;;;;;;;;5024826;28;20037;-60
2022/04/16 13:03:39;;;;;;;6.88;5.47;;;;;;;;;;5022472;28;20029;-60
2022/04/16 13:06:05;;;;;;;7.07;5.13;;;;;;;;;;5019442;28;20052;-61
2022/04/16 13:08:31;;;;;;;7.68;5.63;;;;;;;;;;5022141;28;20018;-61
2022/04/16 13:10:57;;;;;;;7.53;4.70;;;;;;;;;;5020314;28;20488;-60
2022/04/16 13:13:24;;;;;;;10.50;5.88;;;;;;;;;;5023353;28;20566;-60
2022/04/16 13:15:51;;;;;;;8.13;5.60;;;;;;;;;;5023760;28;20029;-59
2022/04/16 13:18:17;;;;;;;7.00;5.35;;;;;;;;;;5026240;28;20017;-59
2022/04/16 13:20:43;;;;;;;8.60;5.30;;;;;;;;;;5023615;28;20033;-59
2022/04/16 13:23:09;;;;;;;7.53;4.88;;;;;;;;;;5021346;28;20029;-59
2022/04/16 13:25:35;;;;;;;7.25;4.75;;;;;;;;;;5018801;28;20405;-57
2022/04/16 13:28:02;;;;;;;7.55;5.03;;;;;;;;;;5024079;28;20037;-60
2022/04/16 13:30:28;;;;;;;5.57;4.28;;;;;;;;;;5023126;28;20524;-59
2022/04/16 13:32:54;;;;;;;7.88;5.05;;;;;;;;;;5019434;28;20017;-59
2022/04/16 13:35:20;;;;;;;6.57;4.85;;;;;;;;;;5021327;28;20018;-60
2022/04/16 13:37:46;;;;;;;8.15;4.70;;;;;;;;;;5022455;28;20422;-58
2022/04/16 13:42:57;;;;;;;6.10;4.38;;;;;;;;;;5018512;28;20466;-61
2022/04/16 13:45:23;;;;;;;6.68;4.80;;;;;;;;;;5020767;28;20022;-58
2022/04/16 13:47:49;;;;;;;6.45;5.05;;;;;;;;;;5016390;28;20034;-60
2022/04/16 13:50:15;;;;;;;5.72;4.43;;;;;;;;;;5021726;28;20033;-59
2022/04/16 13:52:42;;;;;;;6.90;4.18;;;;;;;;;;5021713;28;20108;-61
2022/04/16 13:55:08;;;;;;;5.47;4.30;;;;;;;;;;5022030;28;20063;-61
2022/04/16 13:57:34;;;;;;;5.97;3.70;;;;;;;;;;5021401;28;20076;-59
2022/04/16 14:00:00;;;;;;;5.03;3.92;;;;;;;;;;5018580;28;20440;-58
2022/04/16 14:02:26;;;;;;;7.18;4.50;;;;;;;;;;5020441;28;20037;-59
2022/04/16 14:07:37;;;;;;;7.22;3.90;;;;;;;;;;5018222;28;20048;-58
2022/04/16 14:10:03;;;;;;;6.38;3.78;;;;;;;;;;5019348;28;20485;-59
2022/04/16 14:12:29;;;;;;;7.25;4.47;;;;;;;;;;5017811;28;20033;-61
2022/04/16 14:14:55;;;;;;;5.30;3.60;;;;;;;;;;5021010;28;20100;-60
2022/04/16 14:17:21;;;;;;;6.15;3.70;;;;;;;;;;5015873;28;20056;-60
2022/04/16 14:19:47;;;;;;;5.47;3.30;;;;;;;;;;5015714;28;20029;-57
2022/04/16 14:22:13;;;;;;;4.68;3.08;;;;;;;;;;5019079;28;20477;-60
2022/04/16 14:24:39;;;;;;;5.10;3.10;;;;;;;;;;5020262;28;20036;-61
2022/04/16 14:27:05;;;;;;;5.18;3.03;;;;;;;;;;5024204;28;20045;-58
2022/04/16 14:29:32;;;;;;;4.70;2.97;;;;;;;;;;5020722;28;20045;-59
2022/04/16 14:31:59;;;;;;;4.07;2.78;;;;;;;;;;5019619;28;20234;-60
2022/04/16 14:34:25;;;;;;;4.03;3.00;;;;;;;;;;5021041;28;20424;-58
2022/04/16 14:36:51;;;;;;;4.50;2.95;;;;;;;;;;5022486;28;20352;-57
2022/04/16 14:39:17;;;;;;;4.63;2.75;;;;;;;;;;5018132;28;20109;-56
2022/04/16 14:41:45;;;;;;;4.28;2.70;;;;;;;;;;5019982;28;20512;-58
2022/04/16 14:44:11;;;;;;;5.45;2.90;;;;;;;;;;5021001;28;20551;-60
2022/04/16 14:46:37;;;;;;;4.80;2.90;;;;;;;;;;5020251;28;20042;-60
2022/04/16 14:49:05;;;;;;;5.75;3.13;;;;;;;;;;5026368;28;20403;-58
2022/04/16 14:51:33;;;;;;;4.10;2.65;;;;;;;;;;5020577;28;20179;-58